Latest Weather Observations for Latrobe Valley

IDV60801

Issued at 8:52 pm EST Wednesday 17 July 2024 (issued every 10 minutes, with the page automatically refreshed every 10 minutes)

About weather observations | Map of weather stations | Latest weather observations for VIC | Other Formats
Station Details ID: 085280 Name: LATROBE VALLEY AIRPORT Lat: -38.21 Lon: 146.47 Height: 55.7 m
Data from the previous 72 hours. | See also: Recent months at Latrobe Valley
Date/Time
EST
Temp
°C
App
Temp
°C
Dew
Point
°C
Rel
Hum
%
Delta-T
°C
Wind Press
QNH
hPa
Press
MSL
hPa
Rain since
9am
mm
Dir  Spd
km/h
Gust
km/h
Spd
kts
Gust
kts
17/08:30pm 10.1 8.8 9.2 94 0.4 SW 6 9 3 5 1012.4 1012.6 0.6
17/08:00pm 10.1 8.8 9.3 95 0.4 SW 6 7 3 4 1012.3 1012.5 0.6
17/07:45pm 10.0 9.8 9.2 95 0.4 CALM 0 0 0 0 1012.3 1012.5 0.6
17/07:30pm 10.0 8.4 8.9 93 0.5 NNE 7 9 4 5 1012.2 1012.4 0.6
17/07:00pm 10.3 9.1 9.5 95 0.4 NE 6 7 3 4 1012.1 1012.3 0.6
17/06:30pm 9.4 7.8 8.6 95 0.4 NE 7 9 4 5 1011.9 1012.0 0.6
17/06:00pm 9.6 7.9 8.4 92 0.6 NNW 7 7 4 4 1011.5 1011.6 0.6
17/05:30pm 10.9 9.0 9.0 88 0.9 S 9 13 5 7 1011.2 1011.3 0.4
17/05:00pm 11.5 9.7 9.4 87 1.1 SSW 9 13 5 7 1011.1 1011.2 0.4
17/04:30pm 12.1 10.0 9.8 86 1.2 WSW 11 13 6 7 1010.8 1010.9 0.4
17/04:00pm 12.5 10.0 8.4 76 2.0 WSW 11 15 6 8 1010.7 1010.8 0.2
17/03:30pm 13.0 10.1 8.3 73 2.3 WNW 13 17 7 9 1010.5 1010.6 0.2
17/03:00pm 14.2 11.6 9.2 72 2.6 W 13 19 7 10 1010.5 1010.6 0.0
17/02:30pm 13.3 10.7 9.5 78 1.9 W 13 17 7 9 1010.5 1010.6 0.0
17/02:00pm 13.4 10.2 8.5 72 2.5 W 15 17 8 9 1010.4 1010.5 0.0
17/01:30pm 13.3 10.3 9.4 77 2.0 WNW 15 17 8 9 1010.5 1010.6 0.0
17/01:00pm 12.8 10.7 9.8 82 1.5 W 11 13 6 7 1010.9 1011.0 0.0
17/12:30pm 12.4 10.3 9.6 83 1.4 W 11 13 6 7 1011.2 1011.3 0.0
17/12:00pm 12.1 9.8 9.1 82 1.5 WNW 11 13 6 7 1011.6 1011.7 0.0
17/11:49am 11.9 9.3 9.3 84 1.3 WNW 13 15 7 8 1011.7 1011.8 0.0
17/11:30am 12.3 10.6 9.7 84 1.3 WNW 9 13 5 7 1011.9 1012.0 0.0
17/11:00am 11.0 8.6 10.1 94 0.5 WSW 13 15 7 8 1012.3 1012.5 0.0
17/10:30am 10.2 7.8 10.2 100 0.0 W 13 17 7 9 1012.2 1012.4 0.0
17/10:00am 9.8 7.7 9.8 100 0.0 WNW 11 13 6 7 1012.2 1012.4 0.0
17/09:30am 9.3 7.1 9.3 100 0.0 W 11 15 6 8 1011.9 1012.0 0.0
17/09:00am 9.1 7.6 9.1 100 0.0 W 7 13 4 7 1011.6 1011.7 0.2
17/08:30am 8.5 6.8 8.5 100 0.0 W 7 11 4 6 1011.6 1011.7 0.2
17/08:24am 8.4 6.3 8.4 100 0.0 W 9 11 5 6 1011.5 1011.6 0.2
17/08:03am 7.5 5.8 7.5 100 0.0 WNW 6 6 3 3 1011.3 1011.4 0.2
17/08:00am 7.4 5.7 7.4 100 0.0 WNW 6 6 3 3 1011.2 1011.3 0.2
17/07:53am 7.2 5.4 7.2 100 0.0 WNW 6 6 3 3 1011.2 1011.3 0.2
17/07:30am 7.4 5.5 7.4 100 0.0 WNW 7 9 4 5 1011.1 1011.2 0.2
17/07:28am 7.4 5.5 7.4 100 0.0 NW 7 9 4 5 1011.1 1011.2 0.2
17/07:00am 7.1 5.1 7.1 100 0.0 W 7 11 4 6 1010.9 1011.0 0.2
17/06:55am 7.3 5.0 7.3 100 0.0 WSW 9 11 5 6 1010.9 1011.0 0.2
17/06:38am 6.9 5.0 6.9 100 0.0 WSW 6 9 3 5 1010.7 1010.8 0.2
17/06:30am 6.8 4.9 6.8 100 0.0 WSW 6 9 3 5 1010.7 1010.8 0.2
17/06:00am 6.9 4.5 6.9 100 0.0 WSW 9 15 5 8 1010.4 1010.5 0.2
17/05:41am 5.8 3.1 5.8 100 0.0 W 9 11 5 6 1010.2 1010.3 0.2
17/05:34am 5.9 3.6 5.9 100 0.0 WNW 7 9 4 5 1010.1 1010.2 0.2
17/05:30am 5.8 3.5 5.8 100 0.0 W 7 9 4 5 1010.1 1010.2 0.2
17/05:22am 5.8 3.5 5.7 99 0.0 W 7 9 4 5 1010.1 1010.2 0.2
17/05:00am 6.5 4.0 6.5 100 0.0 W 9 11 5 6 1010.0 1010.1 0.2
17/04:30am 6.3 4.3 6.3 100 0.0 WSW 6 9 3 5 1009.9 1010.0 0.2
17/04:00am 6.4 4.4 6.4 100 0.0 SW 6 9 3 5 1009.8 1009.9 0.2
17/03:30am 6.8 5.7 6.8 100 0.0 SW 2 6 1 3 1009.8 1009.9 0.0
17/03:00am 7.0 5.0 7.0 100 0.0 SW 7 9 4 5 1009.7 1009.8 0.0
17/02:30am 5.9 4.2 5.9 100 0.0 SW 4 7 2 4 1009.7 1009.8 0.0
17/02:00am 6.7 4.2 6.7 100 0.0 SW 9 11 5 6 1009.5 1009.6 0.0
17/01:30am 6.7 5.9 6.7 100 0.0 CALM 0 2 0 1 1009.2 1009.3 0.0
17/01:00am 6.9 6.2 6.8 99 0.0 CALM 0 6 0 3 1009.3 1009.4 0.0
17/12:30am 6.3 5.4 6.2 99 0.0 CALM 0 6 0 3 1009.3 1009.4 0.0
17/12:25am 6.5 5.7 6.4 99 0.0 CALM 0 0 0 0 1009.4 1009.5 0.0
17/12:08am 6.2 4.9 6.1 99 0.0 NNE 2 6 1 3 1009.4 1009.5 0.0
17/12:05am 6.3 4.7 6.2 99 0.0 NNE 4 6 2 3 1009.4 1009.5 0.0
17/12:00am 5.9 3.8 5.8 99 0.0 NNE 6 7 3 4 1009.4 1009.5 0.0
 
Date/Time
EST
Temp
°C
App
Temp
°C
Dew
Point
°C
Rel
Hum
%
Delta-T
°C
Wind Press
QNH
hPa
Press
MSL
hPa
Rain since
9am
mm
Dir  Spd
km/h
Gust
km/h
Spd
kts
Gust
kts
16/11:42pm 6.1 4.0 6.0 99 0.0 SW 6 9 3 5 1009.6 1009.7 0.0
16/11:30pm 7.0 5.0 6.9 99 0.0 SW 7 9 4 5 1009.5 1009.6 0.0
16/11:23pm 6.7 4.8 6.6 99 0.0 SSW 6 7 3 4 1009.5 1009.6 0.0
16/11:00pm 7.5 6.9 7.4 99 0.0 CALM 0 7 0 4 1009.7 1009.8 0.0
16/10:30pm 7.6 5.9 7.5 99 0.0 SW 6 9 3 5 1009.7 1009.8 0.0
16/10:00pm 7.5 6.1 7.2 98 0.1 SW 4 6 2 3 1009.6 1009.7 0.0
16/09:32pm 7.2 5.2 6.9 98 0.1 WSW 7 9 4 5 1009.5 1009.6 0.0
16/09:30pm 7.1 5.0 6.8 98 0.1 WSW 7 9 4 5 1009.5 1009.6 0.0
16/09:00pm 7.1 5.0 6.7 97 0.2 W 7 9 4 5 1009.5 1009.6 0.0
16/08:54pm 6.9 4.8 6.5 97 0.2 W 7 9 4 5 1009.3 1009.4 0.0
16/08:30pm 7.0 4.8 6.3 95 0.3 WNW 7 9 4 5 1009.2 1009.3 0.0
16/08:00pm 7.2 5.2 6.3 94 0.4 WNW 6 6 3 3 1009.0 1009.1 0.0
16/07:30pm 7.8 5.8 6.9 94 0.4 SW 7 7 4 4 1008.8 1008.9 0.0
16/07:00pm 8.1 6.0 6.6 90 0.7 SSW 7 9 4 5 1008.5 1008.6 0.0
16/06:30pm 9.3 8.4 7.7 90 0.8 SW 2 6 1 3 1008.2 1008.3 0.0
16/06:00pm 8.4 6.6 7.2 92 0.6 W 6 9 3 5 1007.9 1008.0 0.0
16/05:30pm 10.2 8.3 6.9 80 1.6 SSW 6 7 3 4 1007.7 1007.8 0.0
16/05:00pm 12.3 9.9 7.0 70 2.6 S 9 17 5 9 1007.4 1007.5 0.0
16/04:30pm 11.8 9.8 8.5 80 1.6 WSW 9 11 5 6 1006.9 1007.0 0.0
16/04:00pm 13.2 11.2 7.2 67 2.9 S 7 11 4 6 1006.7 1006.8 0.0
16/03:30pm 13.4 10.6 7.0 65 3.1 SSE 11 15 6 8 1006.2 1006.3 0.0
16/03:00pm 13.9 10.8 7.4 65 3.2 S 13 19 7 10 1005.9 1006.0 0.0
16/02:30pm 13.9 12.0 9.1 73 2.4 SSW 9 15 5 8 1005.6 1005.7 0.0
16/02:00pm 13.3 11.5 9.4 77 2.0 SSW 9 15 5 8 1005.2 1005.3 0.0
16/01:30pm 13.2 12.0 9.6 79 1.8 SSW 6 11 3 6 1005.0 1005.1 0.0
16/01:03pm 12.9 11.1 11.0 88 1.0 SSW 11 15 6 8 1005.0 1005.1 0.0
16/01:00pm 12.7 10.5 10.9 89 0.9 SW 13 15 7 8 1005.0 1005.1 0.0
16/12:36pm 12.1 10.0 11.0 93 0.6 SW 13 19 7 10 1005.1 1005.2 0.0
16/12:30pm 12.0 9.4 10.7 92 0.7 SW 15 20 8 11 1005.1 1005.2 0.0
16/12:00pm 12.1 8.6 10.3 89 0.9 SW 19 22 10 12 1005.0 1005.1 0.0
16/11:30am 12.3 9.2 10.2 87 1.1 SW 17 26 9 14 1005.3 1005.4 0.0
16/11:18am 12.0 9.3 10.2 89 0.9 SW 15 22 8 12 1005.3 1005.4 0.0
16/11:03am 11.9 8.2 10.0 88 1.0 SW 20 26 11 14 1005.4 1005.5 0.0
16/11:00am 12.0 8.2 9.7 86 1.2 SW 20 26 11 14 1005.3 1005.4 0.0
16/10:30am 12.7 9.1 9.9 83 1.4 SW 19 24 10 13 1005.1 1005.2 0.0
16/10:00am 12.4 10.0 10.0 85 1.2 SW 13 17 7 9 1004.9 1005.0 0.0
16/09:30am 12.1 9.7 10.2 88 1.0 SW 13 17 7 9 1004.6 1004.7 0.0
16/09:00am 11.5 9.9 10.1 91 0.7 SW 9 13 5 7 1004.4 1004.5 14.8
16/08:30am 10.7 8.6 9.8 94 0.5 SW 11 15 6 8 1003.9 1004.0 14.8
16/08:00am 10.3 8.0 9.1 92 0.6 WSW 11 15 6 8 1003.6 1003.7 14.8
16/07:30am 9.6 8.1 9.0 96 0.3 SW 7 11 4 6 1003.3 1003.4 14.8
16/07:00am 9.6 8.2 9.0 96 0.3 WNW 6 6 3 3 1002.9 1003.0 14.8
16/06:30am 10.1 8.9 9.6 97 0.3 NW 6 9 3 5 1002.4 1002.5 14.8
16/06:00am 10.3 9.1 9.7 96 0.3 W 6 9 3 5 1001.8 1001.9 14.8
16/05:30am 10.4 8.7 9.9 97 0.3 WSW 9 11 5 6 1001.0 1001.1 14.8
16/05:00am 9.9 6.9 9.1 95 0.4 W 15 17 8 9 1000.5 1000.6 14.4
16/04:30am 10.3 8.1 9.4 94 0.4 WSW 11 20 6 11 1000.1 1000.2 14.4
16/04:00am 10.4 7.4 9.3 93 0.6 WSW 15 20 8 11 999.6 999.7 14.4
16/03:30am 10.6 6.8 9.7 94 0.5 WSW 20 26 11 14 999.2 999.3 14.4
16/03:00am 10.4 6.6 9.8 96 0.3 SW 20 24 11 13 999.1 999.2 14.4
16/02:30am 8.9 6.4 8.1 95 0.4 SW 11 15 6 8 998.9 999.0 14.4
16/02:00am 9.7 7.0 8.8 94 0.4 WSW 13 17 7 9 998.6 998.7 14.4
16/01:30am 10.4 7.8 9.5 94 0.5 WSW 13 19 7 10 998.2 998.3 14.4
16/01:00am 10.8 7.6 10.0 95 0.4 WSW 17 20 9 11 997.5 997.6 14.4
16/12:30am 11.1 8.0 10.3 95 0.4 SW 17 22 9 12 997.0 997.0 14.4
16/12:00am 11.4 8.4 10.6 95 0.4 SW 17 20 9 11 996.3 996.3 14.4
 
Date/Time
EST
Temp
°C
App
Temp
°C
Dew
Point
°C
Rel
Hum
%
Delta-T
°C
Wind Press
QNH
hPa
Press
MSL
hPa
Rain since
9am
mm
Dir  Spd
km/h
Gust
km/h
Spd
kts
Gust
kts
15/11:48pm 11.6 8.3 10.8 95 0.4 SW 19 30 10 16 996.0 996.0 14.2
15/11:30pm 11.6 7.0 11.0 96 0.3 SW 26 32 14 17 995.4 995.4 14.2
15/11:21pm 11.5 6.5 11.0 97 0.3 WSW 28 35 15 19 995.2 995.2 14.2
15/11:04pm 11.0 6.3 10.5 97 0.3 W 26 35 14 19 994.8 994.8 13.8
15/11:00pm 10.8 6.0 10.3 97 0.3 W 26 35 14 19 994.6 994.7 13.6
15/10:30pm 10.4 3.7 9.8 96 0.3 WNW 35 48 19 26 994.4 994.5 13.2
15/10:18pm 10.4 3.4 9.8 96 0.3 W 37 50 20 27 994.5 994.6 12.6
15/10:01pm 10.4 3.7 9.8 96 0.3 W 35 46 19 25 994.6 994.7 12.2
15/10:00pm 10.4 3.7 9.8 96 0.3 W 35 46 19 25 994.6 994.7 12.2
15/09:43pm 10.3 3.2 9.7 96 0.3 W 37 50 20 27 994.6 994.7 12.2
15/09:30pm 10.3 2.9 9.7 96 0.3 W 39 52 21 28 994.9 994.9 12.0
15/09:00pm 10.1 2.6 9.5 96 0.3 W 39 52 21 28 995.2 995.2 11.0
15/08:38pm 10.0 2.5 9.4 96 0.3 W 39 57 21 31 995.4 995.4 10.2
15/08:30pm 10.0 2.9 9.4 96 0.3 W 37 52 20 28 995.4 995.4 10.2
15/08:00pm 9.8 2.6 9.2 96 0.3 W 37 50 20 27 995.9 995.9 10.0
15/07:41pm 9.7 1.7 8.9 95 0.4 W 41 54 22 29 995.9 995.9 9.8
15/07:30pm 9.6 1.5 8.8 95 0.4 W 41 57 22 31 996.0 996.0 9.6
15/07:29pm 9.7 1.7 8.9 95 0.4 W 41 57 22 31 996.0 996.0 9.6
15/07:26pm 9.7 2.1 8.9 95 0.4 W 39 57 21 31 996.1 996.1 9.4
15/07:22pm 9.7 1.7 8.9 95 0.4 W 41 57 22 31 996.1 996.1 9.4
15/07:19pm 9.7 1.7 8.9 95 0.4 W 41 57 22 31 996.1 996.1 9.4
15/07:00pm 9.6 1.5 8.8 95 0.4 WNW 41 52 22 28 996.3 996.3 9.2
15/06:51pm 9.6 1.5 8.8 95 0.4 W 41 52 22 28 996.4 996.4 8.8
15/06:30pm 9.6 1.5 8.8 95 0.4 W 41 59 22 32 996.7 996.7 8.2
15/06:29pm 9.6 1.5 8.8 95 0.4 W 41 59 22 32 996.7 996.7 8.2
15/06:02pm 9.4 0.9 8.6 95 0.4 W 43 56 23 30 996.8 996.8 7.2
15/06:00pm 9.3 1.2 8.5 95 0.4 W 41 56 22 30 996.8 996.8 7.2
15/05:43pm 9.2 1.1 8.6 96 0.3 W 41 59 22 32 996.9 996.9 6.8
15/05:30pm 9.1 0.4 8.3 95 0.4 W 44 61 24 33 996.9 996.9 6.4
15/05:00pm 9.1 0.0 8.3 95 0.4 W 46 65 25 35 997.1 997.1 5.6
15/04:40pm 8.8 0.1 7.9 94 0.4 WNW 43 61 23 33 997.3 997.3 5.0
15/04:35pm 8.8 0.1 7.9 94 0.4 WNW 43 61 23 33 997.3 997.3 5.0
15/04:30pm 8.8 0.5 7.9 94 0.4 WNW 41 54 22 29 997.5 997.6 4.8
15/04:19pm 8.8 0.5 7.9 94 0.4 WNW 41 57 22 31 997.7 997.8 4.6
15/04:00pm 8.8 0.1 7.9 94 0.4 WNW 43 57 23 31 997.8 997.9 4.2
15/03:44pm 8.8 0.5 7.9 94 0.4 WNW 41 61 22 33 997.9 998.0 4.0
15/03:34pm 8.8 0.5 7.9 94 0.4 WNW 41 61 22 33 997.9 998.0 3.6
15/03:30pm 8.8 0.5 7.9 94 0.4 WNW 41 61 22 33 998.1 998.2 3.6
15/03:00pm 8.8 1.3 7.9 94 0.4 WNW 37 57 20 31 998.5 998.6 3.4
15/02:58pm 8.9 1.4 8.0 94 0.4 WNW 37 57 20 31 998.5 998.6 3.4
15/02:36pm 9.0 0.3 7.9 93 0.5 W 43 63 23 34 998.5 998.6 3.2
15/02:35pm 9.0 0.3 7.9 93 0.5 WNW 43 63 23 34 998.4 998.5 3.2
15/02:31pm 9.0 0.3 7.9 93 0.5 WNW 43 63 23 34 998.5 998.6 3.2
15/02:30pm 9.0 0.7 7.9 93 0.5 WNW 41 54 22 29 998.5 998.6 3.2
15/02:15pm 8.8 -0.5 7.7 93 0.5 W 46 69 25 37 998.7 998.8 3.2
15/02:00pm 8.6 0.2 7.5 93 0.5 W 41 65 22 35 999.3 999.4 2.8
15/01:48pm 8.6 0.2 7.4 92 0.6 W 41 59 22 32 999.3 999.4 2.6
15/01:30pm 8.7 0.0 7.5 92 0.6 W 43 61 23 33 999.6 999.7 2.6
15/01:28pm 8.8 0.5 7.6 92 0.6 WNW 41 61 22 33 999.6 999.7 2.6
15/01:00pm 8.6 1.0 7.5 93 0.5 W 37 50 20 27 1000.2 1000.3 2.2
15/12:50pm 8.5 1.6 7.4 93 0.5 W 33 48 18 26 1000.6 1000.7 1.6
15/12:30pm 8.4 0.0 7.3 93 0.5 W 41 54 22 29 1000.7 1000.8 1.4
15/12:16pm 8.4 0.0 7.2 92 0.6 W 41 61 22 33 1000.9 1001.0 1.2
15/12:11pm 8.5 0.1 7.3 92 0.6 W 41 56 22 30 1001.1 1001.2 1.0
15/12:00pm 8.5 0.1 7.3 92 0.6 W 41 57 22 31 1001.2 1001.3 1.0
15/11:55am 8.4 0.4 7.3 93 0.5 W 39 57 21 31 1001.4 1001.5 1.0
15/11:50am 8.4 0.0 7.3 93 0.5 W 41 52 22 28 1001.5 1001.6 1.0
15/11:30am 8.2 -0.3 7.1 93 0.5 W 41 56 22 30 1002.1 1002.2 0.8
15/11:00am 8.1 -0.4 7.0 93 0.5 W 41 57 22 31 1002.5 1002.6 0.4
15/10:30am 8.0 0.3 6.9 93 0.5 W 37 52 20 28 1003.0 1003.1 0.2
15/10:00am 7.9 -0.2 6.8 93 0.5 W 39 54 21 29 1003.0 1003.1 0.2
15/09:54am 7.9 -0.7 6.7 92 0.6 W 41 56 22 30 1003.0 1003.1 0.2
15/09:37am 8.0 -1.0 6.6 91 0.6 W 43 61 23 33 1003.0 1003.1 0.2
15/09:30am 7.9 0.1 6.7 92 0.6 W 37 50 20 27 1003.1 1003.2 0.2
15/09:00am 7.7 0.2 6.5 92 0.6 W 35 44 19 24 1003.5 1003.6 2.0
15/08:35am 7.6 0.6 6.2 91 0.6 W 32 52 17 28 1003.7 1003.8 2.0
15/08:30am 7.6 1.0 6.1 90 0.7 W 30 39 16 21 1003.8 1003.9 2.0
15/08:00am 7.4 1.2 6.2 92 0.5 W 28 35 15 19 1004.2 1004.3 1.8
15/07:30am 7.7 0.7 6.2 90 0.7 W 32 43 17 23 1004.4 1004.5 1.6
15/07:00am 7.9 0.3 5.7 86 1.0 W 35 44 19 24 1004.5 1004.6 1.4
15/06:30am 7.6 0.3 5.6 87 0.9 W 33 44 18 24 1004.4 1004.5 1.4
15/06:00am 7.7 0.6 5.7 87 0.9 W 32 44 17 24 1004.5 1004.6 1.4
15/05:30am 7.7 0.7 5.8 88 0.9 W 32 46 17 25 1004.6 1004.7 1.4
15/05:00am 7.6 0.6 5.9 89 0.8 W 32 44 17 24 1004.7 1004.8 1.4
15/04:30am 7.5 -0.3 5.1 85 1.1 W 35 50 19 27 1005.1 1005.2 1.4
15/04:00am 7.5 0.2 5.5 87 0.9 W 33 44 18 24 1005.6 1005.7 1.4
15/03:30am 7.0 0.3 5.8 92 0.5 W 30 39 16 21 1006.1 1006.2 1.4
15/03:00am 7.0 0.0 5.8 92 0.5 W 32 41 17 22 1006.5 1006.6 1.4
15/02:30am 6.7 0.4 5.5 92 0.5 W 28 37 15 20 1006.8 1006.9 1.4
15/02:00am 6.8 0.4 5.4 91 0.6 W 28 37 15 20 1007.3 1007.4 1.4
15/01:30am 6.7 0.7 5.5 92 0.5 W 26 35 14 19 1007.3 1007.4 1.4
15/01:00am 6.6 1.0 5.2 91 0.6 W 24 33 13 18 1007.3 1007.4 1.4
15/12:30am 6.7 1.1 5.5 92 0.5 W 24 35 13 19 1007.8 1007.9 1.4
15/12:00am 6.6 0.1 4.9 89 0.7 W 28 39 15 21 1008.2 1008.3 1.4
 
Date/Time
EST
Temp
°C
App
Temp
°C
Dew
Point
°C
Rel
Hum
%
Delta-T
°C
Wind Press
QNH
hPa
Press
MSL
hPa
Rain since
9am
mm
Dir  Spd
km/h
Gust
km/h
Spd
kts
Gust
kts
14/11:30pm 6.5 0.4 4.7 88 0.8 W 26 35 14 19 1008.5 1008.6 1.2
14/11:00pm 6.4 0.7 4.7 89 0.7 W 24 32 13 17 1008.8 1008.9 1.2
14/10:30pm 6.5 0.7 4.3 86 0.9 WNW 24 39 13 21 1009.2 1009.3 1.2
14/10:00pm 6.8 0.7 4.6 86 1.0 WNW 26 35 14 19 1009.6 1009.7 1.2
14/09:30pm 6.7 0.1 4.2 84 1.1 W 28 37 15 20 1009.8 1009.9 1.0
14/09:00pm 6.6 1.6 4.4 86 1.0 W 20 30 11 16 1010.1 1010.2 1.0

Other formats

Comma delimited format used in spreadsheet applications
http://www.bom.gov.au/fwo/IDV60801/IDV60801.94891.axf

JavaScript Object Notation format (JSON) in row-major order
http://www.bom.gov.au/fwo/IDV60801/IDV60801.94891.json

Data quality

Most of these data are generated automatically and are frequently updated. Quality checks on data are not normally performed. It is possible for incorrect values to appear. Refer to information at About Latest Weather Observations and please check the disclaimer before using these data.